• Join FlightAware (Why Join?)
  • Login
  • US Flag 
12:24PM EDT


 

Airport Tracker/Info


-or-


 

Live Flight TrackerFlight Track Log ✈ N830QS ✈ 19-Jan-2014 ✈ KSAV - KMSY

Flight Track Log - Related Links

Times and Time Zones

All times are in EST time to prevent confusion due to time zone crossing. See the N830QS flight status page for this flight to view local times or setup timezone preferences in your user account.

Time Position Orientation Groundspeed Altitude Reporting Facility
EST Latitude Longitude Course Direction KTS MPH feet Rate Location/Type
04:40PM 32.0778 -81.3553 255° West 247 284 9,900  Level Jacksonville Center
04:41PM 32.0372 -81.4442 242° Southwest 282 325 13,100 2,940 Climbing Jacksonville Center
04:42PM 31.9983 -81.5306 242° Southwest 317 365 15,800 2,760 Climbing Jacksonville Center
04:43PM 31.9494 -81.6342 241° Southwest 331 381 18,700 2,700 Climbing Jacksonville Center
04:44PM 31.9880 -81.9046 255° West  Level Estimated
04:44PM 31.9044 -81.7300 241° Southwest 331 381 21,200  Level Jacksonville Center
04:45PM 31.8614 -81.8236 242° Southwest 345 397 22,600 1,500 Climbing Jacksonville Center
04:46PM 31.8058 -81.9439 242° Southwest 377 434 24,200 1,500 Climbing Jacksonville Center
04:47PM 31.7586 -82.0422 241° Southwest 388 447 25,600 1,500 Climbing Jacksonville Center
04:48PM 31.7008 -82.1650 241° Southwest 395 455 27,300 1,500 Climbing Jacksonville Center
04:49PM 31.6514 -82.2678 241° Southwest 395 455 28,600 1,380 Climbing Jacksonville Center
04:50PM 31.5975 -82.3756 240° Southwest 395 455 30,100 1,500 Climbing Jacksonville Center
04:51PM 31.5478 -82.4878 243° Southwest 395 455 31,600 1,500 Climbing Jacksonville Center
04:52PM 31.5211 -82.6075 255° West 390 449 33,100 1,500 Climbing Jacksonville Center
04:53PM 31.5003 -82.7269 258° West 384 442 34,600 1,440 Climbing Jacksonville Center
04:54PM 31.4839 -82.8464 261° West 377 434 36,000 660 Climbing Jacksonville Center
04:55PM 31.4650 -82.9681 260° West 377 434 36,000  Level Jacksonville Center
04:56PM 31.4439 -83.0922 259° West 377 434 36,000  Level Jacksonville Center
04:57PM 31.4292 -83.2189 262° West 389 448 36,000  Level Jacksonville Center
04:58PM 31.4142 -83.3453 262° West 389 448 36,000  Level Jacksonville Center
04:59PM 31.3989 -83.4694 262° West 389 448 36,000  Level Jacksonville Center
05:00PM 31.3817 -83.5933 261° West 389 448 36,000  Level Jacksonville Center
05:01PM 31.3661 -83.7294 262° West 389 448 36,000  Level Jacksonville Center
05:02PM 31.3528 -83.8511 263° West 389 448 36,000  Level Jacksonville Center
05:03PM 31.3372 -83.9750 262° West 389 448 36,000  Level Jacksonville Center
05:04PM 31.3236 -84.0964 263° West 389 448 36,000  Level Jacksonville Center
05:05PM 31.3078 -84.2225 262° West 389 448 36,000  Level Jacksonville Center
05:06PM 31.2917 -84.3464 261° West 389 448 36,000  Level Jacksonville Center
05:07PM 31.2756 -84.4725 262° West 389 448 36,000  Level Jacksonville Center
05:08PM 31.2614 -84.5986 263° West 389 448 36,000  Level Jacksonville Center
05:09PM 31.2450 -84.7247 261° West 389 448 36,000  Level Jacksonville Center
05:10PM 31.2286 -84.8483 261° West 389 448 36,000  Level Jacksonville Center
05:11PM 31.2119 -84.9742 261° West 389 448 36,000  Level Jacksonville Center
05:12PM 31.1953 -85.1025 261° West 389 448 36,000  Level Jacksonville Center
05:13PM 31.1806 -85.2261 262° West 389 448 36,000  Level Jacksonville Center
05:14PM 31.1636 -85.3494 261° West 389 448 36,000  Level Jacksonville Center
05:15PM 31.1464 -85.4778 261° West 396 456 36,000  Level Jacksonville Center
05:16PM 31.1311 -85.6058 262° West 396 456 36,000  Level Jacksonville Center
05:17PM 31.1056 -85.7264 256° West 396 456 36,000  Level Jacksonville Center
05:18PM 31.0822 -85.8422 257° West 403 464 36,000  Level Jacksonville Center
05:19PM 31.0583 -85.9675 257° West 403 464 36,000  Level Jacksonville Center
05:20PM 31.0339 -86.1050 258° West 403 464 36,000  Level Jacksonville Center
05:21PM 31.0078 -86.2325 257° West 403 464 36,000  Level Jacksonville Center
05:22PM 30.9814 -86.3575 256° West 408 470 36,000  Level Jacksonville Center
05:23PM 30.9547 -86.4872 257° West 413 475 36,000  Level Jacksonville Center
05:24PM 30.9328 -86.6053 258° West 406 467 36,000  Level Jacksonville Center
05:25PM 30.9103 -86.7228 257° West 406 467 36,000  Level Jacksonville Center
05:26PM 30.8836 -86.8500 256° West 406 467 36,000  Level Jacksonville Center
05:27PM 30.8589 -86.9725 257° West 406 467 36,000  Level Jacksonville Center
05:28PM 30.8339 -87.0994 257° West 406 467 36,000  Level Jacksonville Center
05:29PM 30.8067 -87.2242 256° West 406 467 36,000 -120 Level Jacksonville Center
05:30PM 30.7792 -87.3511 256° West 412 474 35,800 -1,200 Descending Jacksonville Center
05:32PM 30.7200 -87.6375 257° West 378 435 32,000 -1,140 Descending Houston Center
05:33PM 30.6914 -87.7717 256° West 392 451 32,000  Level Houston Center
05:33PM 30.6858 -87.7969 256° West 396 456 32,000  Level Houston Center
05:34PM 30.6603 -87.9172 256° West 411 473 32,000  Level Houston Center
05:35PM 30.6325 -88.0469 256° West 412 474 32,000  Level Houston Center
05:37PM 30.6039 -88.1767 256° West 412 474 32,000 -540 Level Houston Center
05:38PM 30.5711 -88.3306 256° West 407 468 30,900 -1,440 Descending Houston Center
05:39PM 30.5447 -88.4533 256° West 394 453 29,000 -1,860 Descending Houston Center
05:40PM 30.5186 -88.5722 256° West 381 438 27,100 -1,860 Descending Houston Center
05:41PM 30.4911 -88.6928 255° West 386 444 25,200 -1,860 Descending Houston Center
05:42PM 30.4653 -88.8147 256° West 389 448 23,300 -1,860 Descending Houston Center
05:43PM 30.4378 -88.9322 255° West 380 437 21,400 -1,920 Descending Houston Center
05:44PM 30.4114 -89.0503 255° West 368 423 19,400 -1,800 Descending Houston Center
05:45PM 30.3778 -89.1603 251° West 364 419 17,700 -1,980 Descending Houston Center
05:46PM 30.3311 -89.2819 246° West 348 400 15,400 -2,040 Descending Houston Center
05:47PM 30.2939 -89.3811 247° West 339 390 13,500 -1,860 Descending Houston Center
05:47PM 30.2919 -89.3886 253° West 335 386 13,400 -1,920 Descending Houston Center
05:48PM 30.2689 -89.4475 246° West 329 379 12,200 -1,980 Descending Houston Center
05:48PM 30.2581 -89.4789 248° West 331 381 11,500 -1,200 Descending Houston Center
05:49PM 30.2308 -89.5531 247° West 327 376 11,000 -600 Descending Houston Center
05:49PM 30.2219 -89.5756 245° Southwest 327 376 10,900  Descending Houston Center
05:50PM 30.1944 -89.6486 246° West 326 375 11,000  Climbing Houston Center
05:50PM 30.1850 -89.6736 246° West 328 377 10,900  Descending Houston Center
05:51PM 30.1583 -89.7464 247° West 329 379 11,000  Climbing Houston Center
05:51PM 30.1481 -89.7722 245° Southwest 329 379 10,900 -240 Descending Houston Center
05:52PM 30.1239 -89.8442 249° West 330 380 10,800 -600 Descending Houston Center
05:52PM 30.1142 -89.8714 248° West 329 379 10,300 -1,620 Descending Houston Center
05:53PM 30.0933 -89.9294 247° West 279 321 9,200 -1,680 Descending Houston Center
05:53PM 30.0864 -89.9531 251° West 278 320 8,600 -1,980 Descending Houston Center
05:54PM 30.0581 -90.0008 236° Southwest 253 291 7,200 -2,340 Descending Houston Center
05:54PM 30.0342 -90.0336 230° Southwest 265 305 6,200 -1,980 Descending Houston Center
05:55PM 30.0078 -90.0653 226° Southwest 271 312 5,200 -1,980 Descending Houston Center
05:55PM 29.9814 -90.0981 227° Southwest 271 312 4,200 -1,800 Descending Houston Center
05:56PM 29.9556 -90.1347 231° Southwest 250 288 3,400 -1,200 Descending Houston Center
05:56PM 29.9400 -90.1589 233° Southwest 254 292 3,000 -900 Descending Houston Center
05:57PM 29.9175 -90.1842 224° Southwest 191 220 2,500 -900 Descending Houston Center
05:57PM 29.9014 -90.2031 225° Southwest 220 253 2,100 -900 Descending Houston Center
05:58PM 29.8792 -90.2289 225° Southwest 185 213 1,600 -600 Descending Houston Center
05:58PM 29.8853 -90.2503 288° West 196 226 1,500  Descending Houston Center
05:59PM 29.9011 -90.2664 319° Northwest 150 173 1,600 -120 Climbing Houston Center
05:59PM 29.9186 -90.2669 358° North 167 192 1,400 -600 Descending Houston Center
06:00PM 29.9367 -90.2675 358° North 121 139 1,000 -900 Descending Houston Center
06:00PM 29.9583 -90.2619 13° North 134 154 500 -720 Descending Houston Center
06:01PM 29.9678 -90.2567 26° Northeast 116 133 300 -120 Descending Houston Center
06:01PM 29.9903 -90.2528 North 131 151 400 120 Climbing Houston Center